sensor_id;sensor_type;location;lat;lon;timestamp;temperature;humidity
423;DHT22;198;48.752;9.180;2023-06-22T00:01:58;21.70;99.90
423;DHT22;198;48.752;9.180;2023-06-22T00:04:24;21.70;99.90
423;DHT22;198;48.752;9.180;2023-06-22T00:06:49;21.70;99.90
423;DHT22;198;48.752;9.180;2023-06-22T00:09:15;21.60;99.90
423;DHT22;198;48.752;9.180;2023-06-22T00:11:40;21.60;99.90
423;DHT22;198;48.752;9.180;2023-06-22T00:14:06;21.60;99.90
423;DHT22;198;48.752;9.180;2023-06-22T00:16:32;21.60;99.90
423;DHT22;198;48.752;9.180;2023-06-22T00:18:58;21.50;99.90
423;DHT22;198;48.752;9.180;2023-06-22T00:21:26;21.60;99.90
423;DHT22;198;48.752;9.180;2023-06-22T00:23:51;21.50;99.90
423;DHT22;198;48.752;9.180;2023-06-22T00:26:17;21.50;99.90
423;DHT22;198;48.752;9.180;2023-06-22T00:28:42;21.50;99.90
423;DHT22;198;48.752;9.180;2023-06-22T00:31:08;21.50;99.90
423;DHT22;198;48.752;9.180;2023-06-22T00:33:33;21.50;99.90
423;DHT22;198;48.752;9.180;2023-06-22T00:35:59;21.40;99.90
423;DHT22;198;48.752;9.180;2023-06-22T00:38:24;21.40;99.90
423;DHT22;198;48.752;9.180;2023-06-22T00:40:50;21.50;99.90
423;DHT22;198;48.752;9.180;2023-06-22T00:43:15;21.50;99.90
423;DHT22;198;48.752;9.180;2023-06-22T00:45:41;21.40;99.90
423;DHT22;198;48.752;9.180;2023-06-22T00:48:08;21.40;99.90
423;DHT22;198;48.752;9.180;2023-06-22T00:50:34;21.40;99.90
423;DHT22;198;48.752;9.180;2023-06-22T00:53:02;21.40;99.90
423;DHT22;198;48.752;9.180;2023-06-22T00:55:33;21.40;99.90
423;DHT22;198;48.752;9.180;2023-06-22T00:58:03;21.40;99.90
423;DHT22;198;48.752;9.180;2023-06-22T01:00:31;21.40;99.90
423;DHT22;198;48.752;9.180;2023-06-22T01:02:58;21.40;99.90
423;DHT22;198;48.752;9.180;2023-06-22T01:05:23;21.40;99.90
423;DHT22;198;48.752;9.180;2023-06-22T01:10:48;21.30;99.90
423;DHT22;198;48.752;9.180;2023-06-22T01:16:05;21.30;99.90
423;DHT22;198;48.752;9.180;2023-06-22T01:19:41;21.30;99.90
423;DHT22;198;48.752;9.180;2023-06-22T01:22:10;21.30;99.90
423;DHT22;198;48.752;9.180;2023-06-22T01:29:59;21.10;99.90
423;DHT22;198;48.752;9.180;2023-06-22T01:32:33;21.10;99.90
423;DHT22;198;48.752;9.180;2023-06-22T01:35:01;21.10;99.90
423;DHT22;198;48.752;9.180;2023-06-22T01:37:28;21.10;99.90
423;DHT22;198;48.752;9.180;2023-06-22T01:39:55;21.10;99.90
423;DHT22;198;48.752;9.180;2023-06-22T01:42:22;21.10;99.90
423;DHT22;198;48.752;9.180;2023-06-22T01:44:49;21.00;99.90
423;DHT22;198;48.752;9.180;2023-06-22T01:47:15;21.00;99.90
423;DHT22;198;48.752;9.180;2023-06-22T01:49:41;21.00;99.90
423;DHT22;198;48.752;9.180;2023-06-22T01:52:07;21.00;99.90
423;DHT22;198;48.752;9.180;2023-06-22T01:54:33;21.00;99.90
423;DHT22;198;48.752;9.180;2023-06-22T01:56:58;21.00;99.90
423;DHT22;198;48.752;9.180;2023-06-22T01:59:34;21.00;99.90
423;DHT22;198;48.752;9.180;2023-06-22T02:02:20;20.90;99.90
423;DHT22;198;48.752;9.180;2023-06-22T02:05:12;20.90;99.90
423;DHT22;198;48.752;9.180;2023-06-22T02:07:52;20.90;99.90
423;DHT22;198;48.752;9.180;2023-06-22T02:10:19;20.90;99.90
423;DHT22;198;48.752;9.180;2023-06-22T02:12:46;20.80;99.90
423;DHT22;198;48.752;9.180;2023-06-22T02:15:13;20.80;99.90
423;DHT22;198;48.752;9.180;2023-06-22T02:17:40;20.80;99.90
423;DHT22;198;48.752;9.180;2023-06-22T02:20:12;20.70;99.90
423;DHT22;198;48.752;9.180;2023-06-22T02:22:38;20.70;99.90
423;DHT22;198;48.752;9.180;2023-06-22T02:25:04;20.60;99.90
423;DHT22;198;48.752;9.180;2023-06-22T02:27:29;20.60;99.90
423;DHT22;198;48.752;9.180;2023-06-22T02:29:56;20.60;99.90
423;DHT22;198;48.752;9.180;2023-06-22T02:32:22;20.60;99.90
423;DHT22;198;48.752;9.180;2023-06-22T02:34:48;20.60;99.90
423;DHT22;198;48.752;9.180;2023-06-22T02:37:16;20.50;99.90
423;DHT22;198;48.752;9.180;2023-06-22T02:39:42;20.50;99.90
423;DHT22;198;48.752;9.180;2023-06-22T02:42:07;20.50;99.90
423;DHT22;198;48.752;9.180;2023-06-22T02:44:33;20.40;99.90
423;DHT22;198;48.752;9.180;2023-06-22T02:46:59;20.40;99.90
423;DHT22;198;48.752;9.180;2023-06-22T02:49:24;20.40;99.90
423;DHT22;198;48.752;9.180;2023-06-22T02:51:50;20.40;99.90
423;DHT22;198;48.752;9.180;2023-06-22T02:54:16;20.40;99.90
423;DHT22;198;48.752;9.180;2023-06-22T02:56:42;20.30;99.90
423;DHT22;198;48.752;9.180;2023-06-22T02:59:10;20.40;99.90
423;DHT22;198;48.752;9.180;2023-06-22T03:01:36;20.30;99.90
423;DHT22;198;48.752;9.180;2023-06-22T03:04:08;20.30;99.90
423;DHT22;198;48.752;9.180;2023-06-22T03:06:35;20.30;99.90
423;DHT22;198;48.752;9.180;2023-06-22T03:09:03;20.30;99.90
423;DHT22;198;48.752;9.180;2023-06-22T03:11:33;20.20;99.90
423;DHT22;198;48.752;9.180;2023-06-22T03:14:00;20.20;99.90
423;DHT22;198;48.752;9.180;2023-06-22T03:16:26;20.20;99.90
423;DHT22;198;48.752;9.180;2023-06-22T03:18:52;20.20;99.90
423;DHT22;198;48.752;9.180;2023-06-22T03:21:19;20.20;99.90
423;DHT22;198;48.752;9.180;2023-06-22T03:23:44;20.10;99.90
423;DHT22;198;48.752;9.180;2023-06-22T03:26:10;20.10;99.90
423;DHT22;198;48.752;9.180;2023-06-22T03:28:36;20.10;99.90
423;DHT22;198;48.752;9.180;2023-06-22T03:31:03;20.10;99.90
423;DHT22;198;48.752;9.180;2023-06-22T03:33:29;20.10;99.90
423;DHT22;198;48.752;9.180;2023-06-22T03:35:55;20.10;99.90
423;DHT22;198;48.752;9.180;2023-06-22T03:38:20;20.10;99.90
423;DHT22;198;48.752;9.180;2023-06-22T03:40:46;20.10;99.90
423;DHT22;198;48.752;9.180;2023-06-22T03:43:11;20.10;99.90
423;DHT22;198;48.752;9.180;2023-06-22T03:45:37;20.10;99.90
423;DHT22;198;48.752;9.180;2023-06-22T03:48:03;20.10;99.90
423;DHT22;198;48.752;9.180;2023-06-22T03:50:29;20.10;99.90
423;DHT22;198;48.752;9.180;2023-06-22T03:52:55;20.10;99.90
423;DHT22;198;48.752;9.180;2023-06-22T03:55:21;20.10;99.90
423;DHT22;198;48.752;9.180;2023-06-22T03:57:46;20.10;99.90
423;DHT22;198;48.752;9.180;2023-06-22T04:00:12;20.20;99.90
423;DHT22;198;48.752;9.180;2023-06-22T04:02:38;20.20;99.90
423;DHT22;198;48.752;9.180;2023-06-22T04:05:04;20.30;99.90
423;DHT22;198;48.752;9.180;2023-06-22T04:07:30;20.30;99.90
423;DHT22;198;48.752;9.180;2023-06-22T04:09:55;20.30;99.90
423;DHT22;198;48.752;9.180;2023-06-22T04:12:21;20.40;99.90
423;DHT22;198;48.752;9.180;2023-06-22T04:14:46;20.40;99.90
423;DHT22;198;48.752;9.180;2023-06-22T04:17:12;20.50;99.90
423;DHT22;198;48.752;9.180;2023-06-22T04:19:39;20.60;99.90
423;DHT22;198;48.752;9.180;2023-06-22T04:22:05;20.60;99.90
423;DHT22;198;48.752;9.180;2023-06-22T04:24:32;20.70;99.90
423;DHT22;198;48.752;9.180;2023-06-22T04:26:58;20.70;99.90
423;DHT22;198;48.752;9.180;2023-06-22T04:29:29;20.80;99.90
423;DHT22;198;48.752;9.180;2023-06-22T04:31:58;20.80;99.90
423;DHT22;198;48.752;9.180;2023-06-22T04:34:30;20.80;99.90
423;DHT22;198;48.752;9.180;2023-06-22T04:36:55;20.90;99.90
423;DHT22;198;48.752;9.180;2023-06-22T04:39:21;20.90;99.90
423;DHT22;198;48.752;9.180;2023-06-22T04:41:47;21.00;99.90
423;DHT22;198;48.752;9.180;2023-06-22T04:44:17;21.00;99.90
423;DHT22;198;48.752;9.180;2023-06-22T04:46:59;21.10;99.90
423;DHT22;198;48.752;9.180;2023-06-22T04:49:34;21.10;99.90
423;DHT22;198;48.752;9.180;2023-06-22T04:52:07;21.20;99.90
423;DHT22;198;48.752;9.180;2023-06-22T04:54:34;21.30;99.90
423;DHT22;198;48.752;9.180;2023-06-22T04:57:01;21.30;99.90
423;DHT22;198;48.752;9.180;2023-06-22T04:59:28;21.40;99.90
423;DHT22;198;48.752;9.180;2023-06-22T05:01:59;21.50;99.90
423;DHT22;198;48.752;9.180;2023-06-22T05:04:26;21.50;99.90
423;DHT22;198;48.752;9.180;2023-06-22T05:06:52;21.60;99.90
423;DHT22;198;48.752;9.180;2023-06-22T05:09:19;21.70;99.90
423;DHT22;198;48.752;9.180;2023-06-22T05:11:45;21.70;99.90
423;DHT22;198;48.752;9.180;2023-06-22T05:14:10;21.80;99.90
423;DHT22;198;48.752;9.180;2023-06-22T05:16:40;21.80;99.90
423;DHT22;198;48.752;9.180;2023-06-22T05:19:06;21.90;99.90
423;DHT22;198;48.752;9.180;2023-06-22T05:21:32;22.00;99.90
423;DHT22;198;48.752;9.180;2023-06-22T05:23:58;22.10;99.90
423;DHT22;198;48.752;9.180;2023-06-22T05:26:35;22.10;99.90
423;DHT22;198;48.752;9.180;2023-06-22T05:29:01;22.20;99.90
423;DHT22;198;48.752;9.180;2023-06-22T05:31:27;22.30;99.90
423;DHT22;198;48.752;9.180;2023-06-22T05:33:54;22.40;99.90
423;DHT22;198;48.752;9.180;2023-06-22T05:36:20;22.50;99.90
423;DHT22;198;48.752;9.180;2023-06-22T05:38:47;22.60;99.90
423;DHT22;198;48.752;9.180;2023-06-22T05:41:13;22.70;99.90
423;DHT22;198;48.752;9.180;2023-06-22T05:43:39;22.80;99.90
423;DHT22;198;48.752;9.180;2023-06-22T05:46:05;22.90;99.90
423;DHT22;198;48.752;9.180;2023-06-22T05:48:31;22.90;99.90
423;DHT22;198;48.752;9.180;2023-06-22T05:50:57;22.90;99.90
423;DHT22;198;48.752;9.180;2023-06-22T05:53:22;22.90;99.90
423;DHT22;198;48.752;9.180;2023-06-22T05:55:48;22.90;99.90
423;DHT22;198;48.752;9.180;2023-06-22T05:58:14;22.90;99.90
423;DHT22;198;48.752;9.180;2023-06-22T06:00:40;23.00;99.90
423;DHT22;198;48.752;9.180;2023-06-22T06:03:10;23.00;99.90
423;DHT22;198;48.752;9.180;2023-06-22T06:05:36;23.00;99.90
423;DHT22;198;48.752;9.180;2023-06-22T06:08:04;23.00;99.90
423;DHT22;198;48.752;9.180;2023-06-22T06:10:33;23.00;99.90
423;DHT22;198;48.752;9.180;2023-06-22T06:13:00;22.90;99.90
423;DHT22;198;48.752;9.180;2023-06-22T06:15:27;23.00;99.90
423;DHT22;198;48.752;9.180;2023-06-22T06:17:54;22.90;99.90
423;DHT22;198;48.752;9.180;2023-06-22T06:20:21;22.90;99.90
423;DHT22;198;48.752;9.180;2023-06-22T06:22:47;22.90;99.90
423;DHT22;198;48.752;9.180;2023-06-22T06:25:13;23.00;99.90
423;DHT22;198;48.752;9.180;2023-06-22T06:27:42;23.10;99.90
423;DHT22;198;48.752;9.180;2023-06-22T06:30:09;23.20;99.90
423;DHT22;198;48.752;9.180;2023-06-22T06:32:34;23.30;99.90
423;DHT22;198;48.752;9.180;2023-06-22T06:35:00;23.40;99.90
423;DHT22;198;48.752;9.180;2023-06-22T06:37:25;23.50;99.90
423;DHT22;198;48.752;9.180;2023-06-22T06:39:51;23.60;99.90
423;DHT22;198;48.752;9.180;2023-06-22T06:42:16;23.70;99.90
423;DHT22;198;48.752;9.180;2023-06-22T06:44:42;23.80;99.90
423;DHT22;198;48.752;9.180;2023-06-22T06:47:07;23.90;99.90
423;DHT22;198;48.752;9.180;2023-06-22T06:49:33;24.00;99.90
423;DHT22;198;48.752;9.180;2023-06-22T06:51:59;24.10;99.90
423;DHT22;198;48.752;9.180;2023-06-22T06:54:24;24.10;99.90
423;DHT22;198;48.752;9.180;2023-06-22T06:56:50;24.30;99.90
423;DHT22;198;48.752;9.180;2023-06-22T06:59:15;24.30;99.90
423;DHT22;198;48.752;9.180;2023-06-22T07:01:42;24.40;99.90
423;DHT22;198;48.752;9.180;2023-06-22T07:04:09;24.50;99.90
423;DHT22;198;48.752;9.180;2023-06-22T07:06:35;24.60;99.90
423;DHT22;198;48.752;9.180;2023-06-22T07:09:00;24.70;99.90
423;DHT22;198;48.752;9.180;2023-06-22T07:11:27;24.80;99.90
423;DHT22;198;48.752;9.180;2023-06-22T07:13:53;24.80;99.90
423;DHT22;198;48.752;9.180;2023-06-22T07:16:18;24.80;99.90
423;DHT22;198;48.752;9.180;2023-06-22T07:18:44;25.00;99.90
423;DHT22;198;48.752;9.180;2023-06-22T07:21:09;25.10;99.90
423;DHT22;198;48.752;9.180;2023-06-22T07:23:35;25.20;99.90
423;DHT22;198;48.752;9.180;2023-06-22T07:26:00;25.30;99.90
423;DHT22;198;48.752;9.180;2023-06-22T07:28:31;25.30;99.90
423;DHT22;198;48.752;9.180;2023-06-22T07:31:02;25.40;99.90
423;DHT22;198;48.752;9.180;2023-06-22T07:33:28;25.40;99.90
423;DHT22;198;48.752;9.180;2023-06-22T07:35:53;25.50;99.90
423;DHT22;198;48.752;9.180;2023-06-22T07:38:19;25.60;99.90
423;DHT22;198;48.752;9.180;2023-06-22T07:40:45;25.60;99.90
423;DHT22;198;48.752;9.180;2023-06-22T07:43:11;25.70;99.90
423;DHT22;198;48.752;9.180;2023-06-22T07:45:37;25.80;99.90
423;DHT22;198;48.752;9.180;2023-06-22T07:48:05;25.90;99.90
423;DHT22;198;48.752;9.180;2023-06-22T07:50:30;26.10;99.90
423;DHT22;198;48.752;9.180;2023-06-22T07:52:56;26.20;99.90
423;DHT22;198;48.752;9.180;2023-06-22T07:55:22;26.30;99.90
423;DHT22;198;48.752;9.180;2023-06-22T07:57:49;26.30;99.90
423;DHT22;198;48.752;9.180;2023-06-22T08:00:17;26.40;99.90
423;DHT22;198;48.752;9.180;2023-06-22T08:02:45;26.50;99.90
423;DHT22;198;48.752;9.180;2023-06-22T08:05:11;26.70;99.90
423;DHT22;198;48.752;9.180;2023-06-22T08:07:37;26.70;99.90
423;DHT22;198;48.752;9.180;2023-06-22T08:10:03;26.70;99.90
423;DHT22;198;48.752;9.180;2023-06-22T08:12:29;26.80;99.90
423;DHT22;198;48.752;9.180;2023-06-22T08:14:55;27.10;99.40
423;DHT22;198;48.752;9.180;2023-06-22T08:17:22;27.40;98.70
423;DHT22;198;48.752;9.180;2023-06-22T08:19:48;27.80;96.40
423;DHT22;198;48.752;9.180;2023-06-22T08:22:13;28.20;94.70
423;DHT22;198;48.752;9.180;2023-06-22T08:24:39;28.70;93.50
423;DHT22;198;48.752;9.180;2023-06-22T08:27:07;29.00;91.90
423;DHT22;198;48.752;9.180;2023-06-22T08:29:34;29.60;90.70
423;DHT22;198;48.752;9.180;2023-06-22T08:32:00;30.00;88.20
423;DHT22;198;48.752;9.180;2023-06-22T08:34:26;30.50;83.20
423;DHT22;198;48.752;9.180;2023-06-22T08:36:53;30.60;80.20
423;DHT22;198;48.752;9.180;2023-06-22T08:39:19;30.70;78.50
423;DHT22;198;48.752;9.180;2023-06-22T08:41:46;30.90;76.60
423;DHT22;198;48.752;9.180;2023-06-22T08:44:12;31.20;72.90
423;DHT22;198;48.752;9.180;2023-06-22T08:46:37;31.00;72.70
423;DHT22;198;48.752;9.180;2023-06-22T08:49:04;31.00;73.00
423;DHT22;198;48.752;9.180;2023-06-22T08:51:29;31.10;72.50
423;DHT22;198;48.752;9.180;2023-06-22T08:53:55;30.90;72.70
423;DHT22;198;48.752;9.180;2023-06-22T08:56:20;31.20;73.10
423;DHT22;198;48.752;9.180;2023-06-22T08:58:46;31.40;70.30
423;DHT22;198;48.752;9.180;2023-06-22T09:01:11;31.60;68.10
423;DHT22;198;48.752;9.180;2023-06-22T09:03:37;31.90;66.90
423;DHT22;198;48.752;9.180;2023-06-22T09:06:03;32.00;64.50
423;DHT22;198;48.752;9.180;2023-06-22T09:08:28;31.70;64.70
423;DHT22;198;48.752;9.180;2023-06-22T09:10:54;31.70;65.80
423;DHT22;198;48.752;9.180;2023-06-22T09:13:19;31.70;65.00
423;DHT22;198;48.752;9.180;2023-06-22T09:15:45;31.60;65.40
423;DHT22;198;48.752;9.180;2023-06-22T09:18:11;31.70;66.10
423;DHT22;198;48.752;9.180;2023-06-22T09:20:37;32.00;66.20
423;DHT22;198;48.752;9.180;2023-06-22T09:23:02;32.10;65.40
423;DHT22;198;48.752;9.180;2023-06-22T09:25:28;32.10;62.50
423;DHT22;198;48.752;9.180;2023-06-22T09:27:53;32.10;63.60
423;DHT22;198;48.752;9.180;2023-06-22T09:30:19;32.00;62.60
423;DHT22;198;48.752;9.180;2023-06-22T09:32:44;31.70;63.50
423;DHT22;198;48.752;9.180;2023-06-22T09:35:10;31.60;63.10
423;DHT22;198;48.752;9.180;2023-06-22T09:37:38;31.70;63.60
423;DHT22;198;48.752;9.180;2023-06-22T09:40:04;31.80;62.50
423;DHT22;198;48.752;9.180;2023-06-22T09:42:34;31.90;62.30
423;DHT22;198;48.752;9.180;2023-06-22T09:44:59;32.10;60.80
423;DHT22;198;48.752;9.180;2023-06-22T09:47:27;32.50;61.40
423;DHT22;198;48.752;9.180;2023-06-22T09:49:52;33.10;59.30
423;DHT22;198;48.752;9.180;2023-06-22T09:52:19;33.60;58.70
423;DHT22;198;48.752;9.180;2023-06-22T09:54:45;34.30;55.80
423;DHT22;198;48.752;9.180;2023-06-22T09:57:10;34.50;54.90
423;DHT22;198;48.752;9.180;2023-06-22T09:59:36;35.00;54.30
423;DHT22;198;48.752;9.180;2023-06-22T10:02:01;36.00;54.00
423;DHT22;198;48.752;9.180;2023-06-22T10:04:27;37.20;50.80
423;DHT22;198;48.752;9.180;2023-06-22T10:06:52;37.60;48.40
423;DHT22;198;48.752;9.180;2023-06-22T10:09:18;37.50;47.10
423;DHT22;198;48.752;9.180;2023-06-22T10:11:43;36.90;46.70
423;DHT22;198;48.752;9.180;2023-06-22T10:14:09;36.60;47.40
423;DHT22;198;48.752;9.180;2023-06-22T10:16:36;36.20;47.70
423;DHT22;198;48.752;9.180;2023-06-22T10:19:01;36.00;48.50
423;DHT22;198;48.752;9.180;2023-06-22T10:21:27;35.90;48.90
423;DHT22;198;48.752;9.180;2023-06-22T10:23:54;36.60;49.20
423;DHT22;198;48.752;9.180;2023-06-22T10:26:19;37.20;48.20
423;DHT22;198;48.752;9.180;2023-06-22T10:28:45;37.40;46.40
423;DHT22;198;48.752;9.180;2023-06-22T10:31:10;37.80;45.40
423;DHT22;198;48.752;9.180;2023-06-22T10:33:36;38.70;44.40
423;DHT22;198;48.752;9.180;2023-06-22T10:36:01;39.50;43.10
423;DHT22;198;48.752;9.180;2023-06-22T10:38:27;41.00;41.30
423;DHT22;198;48.752;9.180;2023-06-22T10:40:52;42.20;38.60
423;DHT22;198;48.752;9.180;2023-06-22T10:43:18;43.20;37.50
423;DHT22;198;48.752;9.180;2023-06-22T10:45:43;44.50;35.20
423;DHT22;198;48.752;9.180;2023-06-22T10:48:09;44.20;34.60
423;DHT22;198;48.752;9.180;2023-06-22T10:50:34;43.80;33.80
423;DHT22;198;48.752;9.180;2023-06-22T10:53:00;42.60;35.00
423;DHT22;198;48.752;9.180;2023-06-22T10:55:25;42.00;36.80
423;DHT22;198;48.752;9.180;2023-06-22T10:57:51;40.80;36.60
423;DHT22;198;48.752;9.180;2023-06-22T11:00:17;39.70;38.20
423;DHT22;198;48.752;9.180;2023-06-22T11:02:43;38.80;39.50
423;DHT22;198;48.752;9.180;2023-06-22T11:05:09;38.40;40.70
423;DHT22;198;48.752;9.180;2023-06-22T11:07:34;38.40;40.40
423;DHT22;198;48.752;9.180;2023-06-22T11:10:00;37.90;41.20
423;DHT22;198;48.752;9.180;2023-06-22T11:12:25;37.70;41.50
423;DHT22;198;48.752;9.180;2023-06-22T11:14:51;37.40;42.10
423;DHT22;198;48.752;9.180;2023-06-22T11:17:17;36.90;42.90
423;DHT22;198;48.752;9.180;2023-06-22T11:19:44;36.40;43.40
423;DHT22;198;48.752;9.180;2023-06-22T11:22:10;36.00;44.40
423;DHT22;198;48.752;9.180;2023-06-22T11:24:35;35.70;44.90
423;DHT22;198;48.752;9.180;2023-06-22T11:27:01;35.60;44.80
423;DHT22;198;48.752;9.180;2023-06-22T11:29:26;35.50;45.00
423;DHT22;198;48.752;9.180;2023-06-22T11:31:52;35.80;46.20
423;DHT22;198;48.752;9.180;2023-06-22T11:34:17;36.10;44.80
423;DHT22;198;48.752;9.180;2023-06-22T11:36:44;35.90;44.70
423;DHT22;198;48.752;9.180;2023-06-22T11:39:10;35.90;45.00
423;DHT22;198;48.752;9.180;2023-06-22T11:41:36;36.30;45.50
423;DHT22;198;48.752;9.180;2023-06-22T11:44:01;37.40;44.50
423;DHT22;198;48.752;9.180;2023-06-22T11:46:27;39.10;42.50
423;DHT22;198;48.752;9.180;2023-06-22T11:48:52;40.60;40.90
423;DHT22;198;48.752;9.180;2023-06-22T11:51:18;41.60;39.60
423;DHT22;198;48.752;9.180;2023-06-22T11:53:43;42.40;38.30
423;DHT22;198;48.752;9.180;2023-06-22T11:56:09;42.30;37.90
423;DHT22;198;48.752;9.180;2023-06-22T11:58:34;41.50;37.90
423;DHT22;198;48.752;9.180;2023-06-22T12:01:00;40.90;38.10
423;DHT22;198;48.752;9.180;2023-06-22T12:03:25;40.00;38.60
423;DHT22;198;48.752;9.180;2023-06-22T12:05:51;39.80;39.30
423;DHT22;198;48.752;9.180;2023-06-22T12:08:19;39.60;39.50
423;DHT22;198;48.752;9.180;2023-06-22T12:10:45;39.20;40.20
423;DHT22;198;48.752;9.180;2023-06-22T12:13:10;38.40;40.90
423;DHT22;198;48.752;9.180;2023-06-22T12:15:36;37.80;41.60
423;DHT22;198;48.752;9.180;2023-06-22T12:18:01;37.10;42.90
423;DHT22;198;48.752;9.180;2023-06-22T12:20:27;36.40;43.20
423;DHT22;198;48.752;9.180;2023-06-22T12:22:52;36.40;43.80
423;DHT22;198;48.752;9.180;2023-06-22T12:25:21;36.40;43.90
423;DHT22;198;48.752;9.180;2023-06-22T12:27:46;36.20;44.60
423;DHT22;198;48.752;9.180;2023-06-22T12:30:12;36.00;45.00
423;DHT22;198;48.752;9.180;2023-06-22T12:32:37;35.60;45.60
423;DHT22;198;48.752;9.180;2023-06-22T12:35:03;35.20;46.50
423;DHT22;198;48.752;9.180;2023-06-22T12:37:29;34.80;47.00
423;DHT22;198;48.752;9.180;2023-06-22T12:39:57;34.30;47.30
423;DHT22;198;48.752;9.180;2023-06-22T12:42:22;33.90;48.20
423;DHT22;198;48.752;9.180;2023-06-22T12:44:48;33.80;49.10
423;DHT22;198;48.752;9.180;2023-06-22T12:47:13;33.60;49.70
423;DHT22;198;48.752;9.180;2023-06-22T12:49:39;33.50;49.70
423;DHT22;198;48.752;9.180;2023-06-22T12:52:13;33.30;50.80
423;DHT22;198;48.752;9.180;2023-06-22T12:54:39;33.10;51.20
423;DHT22;198;48.752;9.180;2023-06-22T12:57:05;32.80;52.50
423;DHT22;198;48.752;9.180;2023-06-22T12:59:30;32.60;52.90
423;DHT22;198;48.752;9.180;2023-06-22T13:01:56;32.60;52.70
423;DHT22;198;48.752;9.180;2023-06-22T13:04:21;32.40;52.70
423;DHT22;198;48.752;9.180;2023-06-22T13:06:47;32.40;52.90
423;DHT22;198;48.752;9.180;2023-06-22T13:09:14;32.40;53.40
423;DHT22;198;48.752;9.180;2023-06-22T13:11:40;32.50;53.30
423;DHT22;198;48.752;9.180;2023-06-22T13:14:05;32.60;53.70
423;DHT22;198;48.752;9.180;2023-06-22T13:16:31;32.80;53.70
423;DHT22;198;48.752;9.180;2023-06-22T13:18:56;33.00;53.30
423;DHT22;198;48.752;9.180;2023-06-22T13:21:22;33.30;52.80
423;DHT22;198;48.752;9.180;2023-06-22T13:23:47;33.90;52.10
423;DHT22;198;48.752;9.180;2023-06-22T13:26:13;34.50;49.00
423;DHT22;198;48.752;9.180;2023-06-22T13:28:38;34.90;48.10
423;DHT22;198;48.752;9.180;2023-06-22T13:31:04;35.00;48.10
423;DHT22;198;48.752;9.180;2023-06-22T13:33:29;35.00;48.10
423;DHT22;198;48.752;9.180;2023-06-22T13:35:55;35.10;46.50
423;DHT22;198;48.752;9.180;2023-06-22T13:38:20;35.10;46.60
423;DHT22;198;48.752;9.180;2023-06-22T13:40:47;35.00;46.80
423;DHT22;198;48.752;9.180;2023-06-22T13:43:13;35.30;46.80
423;DHT22;198;48.752;9.180;2023-06-22T13:45:39;35.50;46.70
423;DHT22;198;48.752;9.180;2023-06-22T13:48:05;35.50;46.50
423;DHT22;198;48.752;9.180;2023-06-22T13:50:30;35.50;45.60
423;DHT22;198;48.752;9.180;2023-06-22T13:52:56;35.40;46.00
423;DHT22;198;48.752;9.180;2023-06-22T13:55:22;35.30;45.80
423;DHT22;198;48.752;9.180;2023-06-22T13:57:48;35.30;45.60
423;DHT22;198;48.752;9.180;2023-06-22T14:00:14;35.40;45.60
423;DHT22;198;48.752;9.180;2023-06-22T14:02:39;35.60;45.90
423;DHT22;198;48.752;9.180;2023-06-22T14:05:07;36.10;45.00
423;DHT22;198;48.752;9.180;2023-06-22T14:07:32;37.10;45.00
423;DHT22;198;48.752;9.180;2023-06-22T14:09:58;38.40;42.60
423;DHT22;198;48.752;9.180;2023-06-22T14:12:24;39.50;40.30
423;DHT22;198;48.752;9.180;2023-06-22T14:14:49;40.90;39.30
423;DHT22;198;48.752;9.180;2023-06-22T14:17:15;42.60;36.60
423;DHT22;198;48.752;9.180;2023-06-22T14:19:40;43.70;35.60
423;DHT22;198;48.752;9.180;2023-06-22T14:22:06;45.50;32.90
423;DHT22;198;48.752;9.180;2023-06-22T14:24:31;46.90;30.70
423;DHT22;198;48.752;9.180;2023-06-22T14:26:57;46.80;29.90
423;DHT22;198;48.752;9.180;2023-06-22T14:29:23;45.00;29.30
423;DHT22;198;48.752;9.180;2023-06-22T14:31:48;43.70;30.30
423;DHT22;198;48.752;9.180;2023-06-22T14:34:15;42.80;30.60
423;DHT22;198;48.752;9.180;2023-06-22T14:36:41;42.10;31.40
423;DHT22;198;48.752;9.180;2023-06-22T14:39:06;41.70;29.70
423;DHT22;198;48.752;9.180;2023-06-22T14:41:32;42.60;28.70
423;DHT22;198;48.752;9.180;2023-06-22T14:43:58;44.20;27.60
423;DHT22;198;48.752;9.180;2023-06-22T14:46:23;45.00;27.20
423;DHT22;198;48.752;9.180;2023-06-22T14:48:49;45.20;26.50
423;DHT22;198;48.752;9.180;2023-06-22T14:51:14;46.10;26.00
423;DHT22;198;48.752;9.180;2023-06-22T14:53:41;47.20;24.90
423;DHT22;198;48.752;9.180;2023-06-22T14:56:07;47.80;24.70
423;DHT22;198;48.752;9.180;2023-06-22T14:58:33;48.20;24.50
423;DHT22;198;48.752;9.180;2023-06-22T15:01:00;47.70;23.60
423;DHT22;198;48.752;9.180;2023-06-22T15:03:25;47.30;23.90
423;DHT22;198;48.752;9.180;2023-06-22T15:05:54;46.50;23.00
423;DHT22;198;48.752;9.180;2023-06-22T15:08:19;44.90;23.90
423;DHT22;198;48.752;9.180;2023-06-22T15:10:45;43.60;25.10
423;DHT22;198;48.752;9.180;2023-06-22T15:13:10;42.70;25.10
423;DHT22;198;48.752;9.180;2023-06-22T15:15:36;42.10;25.70
423;DHT22;198;48.752;9.180;2023-06-22T15:18:01;41.20;25.90
423;DHT22;198;48.752;9.180;2023-06-22T15:20:27;41.30;26.10
423;DHT22;198;48.752;9.180;2023-06-22T15:22:53;41.50;26.40
423;DHT22;198;48.752;9.180;2023-06-22T15:25:18;42.70;25.60
423;DHT22;198;48.752;9.180;2023-06-22T15:27:44;43.60;25.20
423;DHT22;198;48.752;9.180;2023-06-22T15:30:09;43.60;24.50
423;DHT22;198;48.752;9.180;2023-06-22T15:32:35;42.90;24.70
423;DHT22;198;48.752;9.180;2023-06-22T15:35:00;42.20;25.30
423;DHT22;198;48.752;9.180;2023-06-22T15:37:26;41.80;25.40
423;DHT22;198;48.752;9.180;2023-06-22T15:39:52;41.20;25.90
423;DHT22;198;48.752;9.180;2023-06-22T15:42:17;40.30;26.50
423;DHT22;198;48.752;9.180;2023-06-22T15:44:43;39.80;27.30
423;DHT22;198;48.752;9.180;2023-06-22T15:47:08;39.70;27.00
423;DHT22;198;48.752;9.180;2023-06-22T15:49:34;39.50;26.80
423;DHT22;198;48.752;9.180;2023-06-22T15:51:59;39.10;27.30
423;DHT22;198;48.752;9.180;2023-06-22T15:54:25;38.40;27.90
423;DHT22;198;48.752;9.180;2023-06-22T15:56:50;37.50;28.30
423;DHT22;198;48.752;9.180;2023-06-22T15:59:15;36.80;29.10
423;DHT22;198;48.752;9.180;2023-06-22T16:01:41;35.90;29.90
423;DHT22;198;48.752;9.180;2023-06-22T16:04:07;35.10;31.20
423;DHT22;198;48.752;9.180;2023-06-22T16:06:33;34.30;32.20
423;DHT22;198;48.752;9.180;2023-06-22T16:08:58;33.80;33.40
423;DHT22;198;48.752;9.180;2023-06-22T16:11:24;33.40;34.20
423;DHT22;198;48.752;9.180;2023-06-22T16:13:50;33.10;34.80
423;DHT22;198;48.752;9.180;2023-06-22T16:16:15;32.70;35.30
423;DHT22;198;48.752;9.180;2023-06-22T16:18:42;32.50;35.90
423;DHT22;198;48.752;9.180;2023-06-22T16:21:07;32.20;36.60
423;DHT22;198;48.752;9.180;2023-06-22T16:23:33;32.00;37.20
423;DHT22;198;48.752;9.180;2023-06-22T16:25:58;31.90;37.50
423;DHT22;198;48.752;9.180;2023-06-22T16:28:24;31.70;37.90
423;DHT22;198;48.752;9.180;2023-06-22T16:30:49;31.50;38.30
423;DHT22;198;48.752;9.180;2023-06-22T16:33:15;31.40;39.00
423;DHT22;198;48.752;9.180;2023-06-22T16:35:40;31.20;39.10
423;DHT22;198;48.752;9.180;2023-06-22T16:38:06;31.10;39.10
423;DHT22;198;48.752;9.180;2023-06-22T16:40:32;31.10;39.50